sensor_id;sensor_type;location;lat;lon;timestamp;temperature;humidity
50606;DHT22;36557;53.572;10.170;2022-07-01T00:02:00;21.90;99.90
50606;DHT22;36557;53.572;10.170;2022-07-01T00:04:26;21.90;99.90
50606;DHT22;36557;53.572;10.170;2022-07-01T00:06:56;22.00;99.90
50606;DHT22;36557;53.572;10.170;2022-07-01T00:09:22;22.10;99.90
50606;DHT22;36557;53.572;10.170;2022-07-01T00:11:48;22.10;99.90
50606;DHT22;36557;53.572;10.170;2022-07-01T00:14:14;22.20;99.90
50606;DHT22;36557;53.572;10.170;2022-07-01T00:16:40;22.30;99.90
50606;DHT22;36557;53.572;10.170;2022-07-01T00:19:06;22.20;99.90
50606;DHT22;36557;53.572;10.170;2022-07-01T00:21:33;22.20;99.90
50606;DHT22;36557;53.572;10.170;2022-07-01T00:23:59;22.20;99.90
50606;DHT22;36557;53.572;10.170;2022-07-01T00:26:24;22.20;99.90
50606;DHT22;36557;53.572;10.170;2022-07-01T00:28:50;22.20;99.90
50606;DHT22;36557;53.572;10.170;2022-07-01T00:31:16;22.00;99.90
50606;DHT22;36557;53.572;10.170;2022-07-01T00:33:42;21.90;99.90
50606;DHT22;36557;53.572;10.170;2022-07-01T00:36:08;21.80;99.90
50606;DHT22;36557;53.572;10.170;2022-07-01T00:38:34;21.70;99.90
50606;DHT22;36557;53.572;10.170;2022-07-01T00:41:00;21.80;99.90
50606;DHT22;36557;53.572;10.170;2022-07-01T00:43:26;21.70;99.90
50606;DHT22;36557;53.572;10.170;2022-07-01T00:45:52;21.60;99.90
50606;DHT22;36557;53.572;10.170;2022-07-01T00:48:20;21.60;99.90
50606;DHT22;36557;53.572;10.170;2022-07-01T00:50:47;21.50;99.90
50606;DHT22;36557;53.572;10.170;2022-07-01T00:53:14;21.50;99.90
50606;DHT22;36557;53.572;10.170;2022-07-01T00:55:41;21.50;99.90
50606;DHT22;36557;53.572;10.170;2022-07-01T00:58:07;21.50;99.90
50606;DHT22;36557;53.572;10.170;2022-07-01T01:00:33;21.20;99.90
50606;DHT22;36557;53.572;10.170;2022-07-01T01:02:59;21.10;99.90
50606;DHT22;36557;53.572;10.170;2022-07-01T01:05:25;20.70;99.90
50606;DHT22;36557;53.572;10.170;2022-07-01T01:07:51;20.60;99.90
50606;DHT22;36557;53.572;10.170;2022-07-01T01:10:17;20.50;99.90
50606;DHT22;36557;53.572;10.170;2022-07-01T01:12:44;20.30;99.90
50606;DHT22;36557;53.572;10.170;2022-07-01T01:15:10;20.10;99.90
50606;DHT22;36557;53.572;10.170;2022-07-01T01:17:36;19.50;99.90
50606;DHT22;36557;53.572;10.170;2022-07-01T01:20:03;19.40;99.90
50606;DHT22;36557;53.572;10.170;2022-07-01T01:22:29;19.50;99.90
50606;DHT22;36557;53.572;10.170;2022-07-01T01:24:55;19.60;99.90
50606;DHT22;36557;53.572;10.170;2022-07-01T01:27:23;19.60;99.90
50606;DHT22;36557;53.572;10.170;2022-07-01T01:29:48;19.50;99.90
50606;DHT22;36557;53.572;10.170;2022-07-01T01:32:14;19.50;99.90
50606;DHT22;36557;53.572;10.170;2022-07-01T01:34:40;19.50;99.90
50606;DHT22;36557;53.572;10.170;2022-07-01T01:37:07;19.40;99.90
50606;DHT22;36557;53.572;10.170;2022-07-01T01:39:34;19.40;99.90
50606;DHT22;36557;53.572;10.170;2022-07-01T01:42:04;19.40;99.90
50606;DHT22;36557;53.572;10.170;2022-07-01T01:44:30;19.30;99.90
50606;DHT22;36557;53.572;10.170;2022-07-01T01:46:56;19.20;99.90
50606;DHT22;36557;53.572;10.170;2022-07-01T01:49:21;19.10;99.90
50606;DHT22;36557;53.572;10.170;2022-07-01T01:51:47;18.80;99.90
50606;DHT22;36557;53.572;10.170;2022-07-01T01:54:14;18.70;99.90
50606;DHT22;36557;53.572;10.170;2022-07-01T01:56:40;18.70;99.90
50606;DHT22;36557;53.572;10.170;2022-07-01T01:59:05;18.90;99.90
50606;DHT22;36557;53.572;10.170;2022-07-01T02:01:32;19.00;99.90
50606;DHT22;36557;53.572;10.170;2022-07-01T02:03:58;19.10;99.90
50606;DHT22;36557;53.572;10.170;2022-07-01T02:06:25;19.30;99.90
50606;DHT22;36557;53.572;10.170;2022-07-01T02:08:51;19.40;99.90
50606;DHT22;36557;53.572;10.170;2022-07-01T02:11:16;19.50;99.90
50606;DHT22;36557;53.572;10.170;2022-07-01T02:13:42;19.50;99.90
50606;DHT22;36557;53.572;10.170;2022-07-01T02:16:09;19.50;99.90
50606;DHT22;36557;53.572;10.170;2022-07-01T02:18:35;19.50;99.90
50606;DHT22;36557;53.572;10.170;2022-07-01T02:21:01;19.60;99.90
50606;DHT22;36557;53.572;10.170;2022-07-01T02:23:27;19.70;99.90
50606;DHT22;36557;53.572;10.170;2022-07-01T02:25:54;19.80;99.90
50606;DHT22;36557;53.572;10.170;2022-07-01T02:28:20;19.70;99.90
50606;DHT22;36557;53.572;10.170;2022-07-01T02:30:46;19.60;99.90
50606;DHT22;36557;53.572;10.170;2022-07-01T02:33:12;19.40;99.90
50606;DHT22;36557;53.572;10.170;2022-07-01T02:35:39;19.40;99.90
50606;DHT22;36557;53.572;10.170;2022-07-01T02:38:06;19.50;99.90
50606;DHT22;36557;53.572;10.170;2022-07-01T02:40:36;19.70;99.90
50606;DHT22;36557;53.572;10.170;2022-07-01T02:43:06;19.70;99.90
50606;DHT22;36557;53.572;10.170;2022-07-01T02:45:32;19.80;99.90
50606;DHT22;36557;53.572;10.170;2022-07-01T02:47:58;19.70;99.90
50606;DHT22;36557;53.572;10.170;2022-07-01T02:50:24;19.70;99.90
50606;DHT22;36557;53.572;10.170;2022-07-01T02:52:49;19.80;99.90
50606;DHT22;36557;53.572;10.170;2022-07-01T02:55:15;19.80;99.90
50606;DHT22;36557;53.572;10.170;2022-07-01T02:57:42;19.90;99.90
50606;DHT22;36557;53.572;10.170;2022-07-01T03:00:11;19.70;99.90
50606;DHT22;36557;53.572;10.170;2022-07-01T03:02:37;19.70;99.90
50606;DHT22;36557;53.572;10.170;2022-07-01T03:05:04;19.80;99.90
50606;DHT22;36557;53.572;10.170;2022-07-01T03:07:30;19.80;99.90
50606;DHT22;36557;53.572;10.170;2022-07-01T03:09:56;19.80;99.90
50606;DHT22;36557;53.572;10.170;2022-07-01T03:12:22;19.80;99.90
50606;DHT22;36557;53.572;10.170;2022-07-01T03:14:51;19.80;99.90
50606;DHT22;36557;53.572;10.170;2022-07-01T03:17:17;19.70;99.90
50606;DHT22;36557;53.572;10.170;2022-07-01T03:19:43;19.70;99.90
50606;DHT22;36557;53.572;10.170;2022-07-01T03:22:09;19.70;99.90
50606;DHT22;36557;53.572;10.170;2022-07-01T03:24:35;19.70;99.90
50606;DHT22;36557;53.572;10.170;2022-07-01T03:27:01;19.70;99.90
50606;DHT22;36557;53.572;10.170;2022-07-01T03:29:27;19.70;99.90
50606;DHT22;36557;53.572;10.170;2022-07-01T03:31:52;19.80;99.90
50606;DHT22;36557;53.572;10.170;2022-07-01T03:34:18;19.70;99.90
50606;DHT22;36557;53.572;10.170;2022-07-01T03:36:44;19.70;99.90
50606;DHT22;36557;53.572;10.170;2022-07-01T03:39:09;19.70;99.90
50606;DHT22;36557;53.572;10.170;2022-07-01T03:41:35;19.80;99.90
50606;DHT22;36557;53.572;10.170;2022-07-01T03:44:01;19.70;99.90
50606;DHT22;36557;53.572;10.170;2022-07-01T03:46:26;19.60;99.90
50606;DHT22;36557;53.572;10.170;2022-07-01T03:48:55;19.60;99.90
50606;DHT22;36557;53.572;10.170;2022-07-01T03:51:21;19.60;99.90
50606;DHT22;36557;53.572;10.170;2022-07-01T03:53:47;19.50;99.90
50606;DHT22;36557;53.572;10.170;2022-07-01T03:56:31;19.60;99.90
50606;DHT22;36557;53.572;10.170;2022-07-01T03:58:57;19.70;99.90
50606;DHT22;36557;53.572;10.170;2022-07-01T04:01:22;19.70;99.90
50606;DHT22;36557;53.572;10.170;2022-07-01T04:03:48;19.70;99.90
50606;DHT22;36557;53.572;10.170;2022-07-01T04:06:14;19.70;99.90
50606;DHT22;36557;53.572;10.170;2022-07-01T04:08:40;19.60;99.90
50606;DHT22;36557;53.572;10.170;2022-07-01T04:11:06;19.70;99.90
50606;DHT22;36557;53.572;10.170;2022-07-01T04:13:35;19.70;99.90
50606;DHT22;36557;53.572;10.170;2022-07-01T04:16:02;19.40;99.90
50606;DHT22;36557;53.572;10.170;2022-07-01T04:18:29;19.50;99.90
50606;DHT22;36557;53.572;10.170;2022-07-01T04:20:55;19.60;99.90
50606;DHT22;36557;53.572;10.170;2022-07-01T04:23:39;19.50;99.90
50606;DHT22;36557;53.572;10.170;2022-07-01T04:26:05;19.40;99.90
50606;DHT22;36557;53.572;10.170;2022-07-01T04:28:30;19.40;99.90
50606;DHT22;36557;53.572;10.170;2022-07-01T04:30:56;19.60;99.90
50606;DHT22;36557;53.572;10.170;2022-07-01T04:33:22;19.60;99.90
50606;DHT22;36557;53.572;10.170;2022-07-01T04:35:47;19.70;99.90
50606;DHT22;36557;53.572;10.170;2022-07-01T04:38:13;19.80;99.90
50606;DHT22;36557;53.572;10.170;2022-07-01T04:40:39;19.80;99.90
50606;DHT22;36557;53.572;10.170;2022-07-01T04:43:04;19.80;99.90
50606;DHT22;36557;53.572;10.170;2022-07-01T04:45:30;19.80;99.90
50606;DHT22;36557;53.572;10.170;2022-07-01T04:47:56;19.80;99.90
50606;DHT22;36557;53.572;10.170;2022-07-01T04:50:22;19.60;99.90
50606;DHT22;36557;53.572;10.170;2022-07-01T04:52:47;19.60;99.90
50606;DHT22;36557;53.572;10.170;2022-07-01T04:55:13;19.30;99.90
50606;DHT22;36557;53.572;10.170;2022-07-01T04:57:39;19.30;99.90
50606;DHT22;36557;53.572;10.170;2022-07-01T05:00:05;19.30;99.90
50606;DHT22;36557;53.572;10.170;2022-07-01T05:02:31;19.30;99.90
50606;DHT22;36557;53.572;10.170;2022-07-01T05:04:56;19.30;99.90
50606;DHT22;36557;53.572;10.170;2022-07-01T05:07:22;19.30;99.90
50606;DHT22;36557;53.572;10.170;2022-07-01T05:09:57;19.30;99.90
50606;DHT22;36557;53.572;10.170;2022-07-01T05:12:24;19.30;99.90
50606;DHT22;36557;53.572;10.170;2022-07-01T05:14:50;19.30;99.90
50606;DHT22;36557;53.572;10.170;2022-07-01T05:17:16;19.30;99.90
50606;DHT22;36557;53.572;10.170;2022-07-01T05:19:42;19.30;99.90
50606;DHT22;36557;53.572;10.170;2022-07-01T05:22:26;19.20;99.90
50606;DHT22;36557;53.572;10.170;2022-07-01T05:24:51;19.20;99.90
50606;DHT22;36557;53.572;10.170;2022-07-01T05:27:17;19.10;99.90
50606;DHT22;36557;53.572;10.170;2022-07-01T05:29:43;19.10;99.90
50606;DHT22;36557;53.572;10.170;2022-07-01T05:32:09;18.80;99.90
50606;DHT22;36557;53.572;10.170;2022-07-01T05:34:34;18.80;99.90
50606;DHT22;36557;53.572;10.170;2022-07-01T05:37:02;18.60;99.90
50606;DHT22;36557;53.572;10.170;2022-07-01T05:39:28;18.70;99.90
50606;DHT22;36557;53.572;10.170;2022-07-01T05:41:54;18.60;99.90
50606;DHT22;36557;53.572;10.170;2022-07-01T05:44:19;18.50;99.90
50606;DHT22;36557;53.572;10.170;2022-07-01T05:46:47;18.30;99.90
50606;DHT22;36557;53.572;10.170;2022-07-01T05:49:12;18.40;99.90
50606;DHT22;36557;53.572;10.170;2022-07-01T05:51:38;18.10;99.90
50606;DHT22;36557;53.572;10.170;2022-07-01T05:54:04;18.00;99.90
50606;DHT22;36557;53.572;10.170;2022-07-01T05:56:29;18.20;99.90
50606;DHT22;36557;53.572;10.170;2022-07-01T05:58:55;18.10;99.90
50606;DHT22;36557;53.572;10.170;2022-07-01T06:01:21;18.20;99.90
50606;DHT22;36557;53.572;10.170;2022-07-01T06:03:47;17.80;99.90
50606;DHT22;36557;53.572;10.170;2022-07-01T06:06:12;17.80;99.90
50606;DHT22;36557;53.572;10.170;2022-07-01T06:08:38;17.60;99.90
50606;DHT22;36557;53.572;10.170;2022-07-01T06:11:04;17.50;99.90
50606;DHT22;36557;53.572;10.170;2022-07-01T06:13:30;17.60;99.90
50606;DHT22;36557;53.572;10.170;2022-07-01T06:15:56;17.40;99.90
50606;DHT22;36557;53.572;10.170;2022-07-01T06:18:25;17.40;99.90
50606;DHT22;36557;53.572;10.170;2022-07-01T06:20:51;17.30;99.90
50606;DHT22;36557;53.572;10.170;2022-07-01T06:23:16;17.50;99.90
50606;DHT22;36557;53.572;10.170;2022-07-01T06:25:42;17.70;99.90
50606;DHT22;36557;53.572;10.170;2022-07-01T06:28:08;17.80;99.90
50606;DHT22;36557;53.572;10.170;2022-07-01T06:30:33;17.70;99.90
50606;DHT22;36557;53.572;10.170;2022-07-01T06:32:59;17.70;99.90
50606;DHT22;36557;53.572;10.170;2022-07-01T06:35:25;17.70;99.90
50606;DHT22;36557;53.572;10.170;2022-07-01T06:37:51;17.70;99.90
50606;DHT22;36557;53.572;10.170;2022-07-01T06:40:16;17.50;99.90
50606;DHT22;36557;53.572;10.170;2022-07-01T06:42:42;17.30;99.90
50606;DHT22;36557;53.572;10.170;2022-07-01T06:45:09;16.80;99.90
50606;DHT22;36557;53.572;10.170;2022-07-01T06:47:35;16.70;99.90
50606;DHT22;36557;53.572;10.170;2022-07-01T06:50:03;16.60;99.90
50606;DHT22;36557;53.572;10.170;2022-07-01T06:52:28;16.50;99.90
50606;DHT22;36557;53.572;10.170;2022-07-01T06:54:54;16.30;99.90
50606;DHT22;36557;53.572;10.170;2022-07-01T06:57:20;16.20;99.90
50606;DHT22;36557;53.572;10.170;2022-07-01T06:59:45;16.30;99.90
50606;DHT22;36557;53.572;10.170;2022-07-01T07:02:11;16.30;99.90
50606;DHT22;36557;53.572;10.170;2022-07-01T07:04:37;16.40;99.90
50606;DHT22;36557;53.572;10.170;2022-07-01T07:07:03;16.60;99.90
50606;DHT22;36557;53.572;10.170;2022-07-01T07:09:28;16.90;99.90
50606;DHT22;36557;53.572;10.170;2022-07-01T07:11:54;17.10;99.90
50606;DHT22;36557;53.572;10.170;2022-07-01T07:14:20;17.30;99.90
50606;DHT22;36557;53.572;10.170;2022-07-01T07:16:46;17.20;99.90
50606;DHT22;36557;53.572;10.170;2022-07-01T07:19:11;17.20;99.90
50606;DHT22;36557;53.572;10.170;2022-07-01T07:21:37;16.90;99.90
50606;DHT22;36557;53.572;10.170;2022-07-01T07:24:03;16.80;99.90
50606;DHT22;36557;53.572;10.170;2022-07-01T07:26:29;17.10;99.90
50606;DHT22;36557;53.572;10.170;2022-07-01T07:28:54;17.40;99.90
50606;DHT22;36557;53.572;10.170;2022-07-01T07:31:20;17.30;99.90
50606;DHT22;36557;53.572;10.170;2022-07-01T07:33:46;17.40;99.90
50606;DHT22;36557;53.572;10.170;2022-07-01T07:36:12;17.50;99.90
50606;DHT22;36557;53.572;10.170;2022-07-01T07:38:38;17.60;99.90
50606;DHT22;36557;53.572;10.170;2022-07-01T07:41:04;17.80;99.90
50606;DHT22;36557;53.572;10.170;2022-07-01T07:43:30;18.00;99.90
50606;DHT22;36557;53.572;10.170;2022-07-01T07:45:56;17.80;99.90
50606;DHT22;36557;53.572;10.170;2022-07-01T07:48:21;17.90;99.90
50606;DHT22;36557;53.572;10.170;2022-07-01T07:50:47;17.80;99.90
50606;DHT22;36557;53.572;10.170;2022-07-01T07:53:13;17.70;99.90
50606;DHT22;36557;53.572;10.170;2022-07-01T07:55:39;17.40;99.90
50606;DHT22;36557;53.572;10.170;2022-07-01T07:58:06;17.20;99.90
50606;DHT22;36557;53.572;10.170;2022-07-01T08:00:32;17.10;99.90
50606;DHT22;36557;53.572;10.170;2022-07-01T08:02:57;17.20;99.90
50606;DHT22;36557;53.572;10.170;2022-07-01T08:05:23;17.10;99.90
50606;DHT22;36557;53.572;10.170;2022-07-01T08:07:49;17.00;99.90
50606;DHT22;36557;53.572;10.170;2022-07-01T08:10:15;17.00;99.90
50606;DHT22;36557;53.572;10.170;2022-07-01T08:12:41;17.10;99.90
50606;DHT22;36557;53.572;10.170;2022-07-01T08:15:07;16.70;99.90
50606;DHT22;36557;53.572;10.170;2022-07-01T08:17:34;16.80;99.90
50606;DHT22;36557;53.572;10.170;2022-07-01T08:20:00;17.10;99.90
50606;DHT22;36557;53.572;10.170;2022-07-01T08:22:26;17.00;99.90
50606;DHT22;36557;53.572;10.170;2022-07-01T08:24:52;17.10;99.90
50606;DHT22;36557;53.572;10.170;2022-07-01T08:27:17;16.80;99.90
50606;DHT22;36557;53.572;10.170;2022-07-01T08:29:43;16.90;99.90
50606;DHT22;36557;53.572;10.170;2022-07-01T08:32:09;16.90;99.90
50606;DHT22;36557;53.572;10.170;2022-07-01T08:34:35;16.70;99.90
50606;DHT22;36557;53.572;10.170;2022-07-01T08:37:03;16.70;99.90
50606;DHT22;36557;53.572;10.170;2022-07-01T08:39:29;17.00;99.90
50606;DHT22;36557;53.572;10.170;2022-07-01T08:41:55;17.10;99.90
50606;DHT22;36557;53.572;10.170;2022-07-01T08:44:21;17.20;99.90
50606;DHT22;36557;53.572;10.170;2022-07-01T08:46:47;17.20;99.90
50606;DHT22;36557;53.572;10.170;2022-07-01T08:49:13;17.30;99.90
50606;DHT22;36557;53.572;10.170;2022-07-01T08:51:39;17.10;99.90
50606;DHT22;36557;53.572;10.170;2022-07-01T08:54:04;17.20;99.90
50606;DHT22;36557;53.572;10.170;2022-07-01T08:56:30;17.10;99.90
50606;DHT22;36557;53.572;10.170;2022-07-01T08:59:25;17.10;99.90
50606;DHT22;36557;53.572;10.170;2022-07-01T09:01:57;17.30;99.90
50606;DHT22;36557;53.572;10.170;2022-07-01T09:04:22;17.50;99.90
50606;DHT22;36557;53.572;10.170;2022-07-01T09:06:49;17.50;99.90
50606;DHT22;36557;53.572;10.170;2022-07-01T09:11:52;17.80;99.90
50606;DHT22;36557;53.572;10.170;2022-07-01T09:14:26;17.80;99.90
50606;DHT22;36557;53.572;10.170;2022-07-01T09:19:22;17.80;99.90
50606;DHT22;36557;53.572;10.170;2022-07-01T09:21:53;17.60;99.90
50606;DHT22;36557;53.572;10.170;2022-07-01T09:24:26;17.40;99.90
50606;DHT22;36557;53.572;10.170;2022-07-01T09:27:03;17.60;99.90
50606;DHT22;36557;53.572;10.170;2022-07-01T09:29:37;17.10;99.90
50606;DHT22;36557;53.572;10.170;2022-07-01T09:32:06;17.40;99.90
50606;DHT22;36557;53.572;10.170;2022-07-01T09:34:33;17.50;99.90
50606;DHT22;36557;53.572;10.170;2022-07-01T09:36:59;17.60;99.90
50606;DHT22;36557;53.572;10.170;2022-07-01T09:39:25;17.70;99.90
50606;DHT22;36557;53.572;10.170;2022-07-01T09:41:55;17.80;99.90
50606;DHT22;36557;53.572;10.170;2022-07-01T09:44:21;17.90;99.90
50606;DHT22;36557;53.572;10.170;2022-07-01T09:46:54;17.80;99.90
50606;DHT22;36557;53.572;10.170;2022-07-01T09:49:21;17.90;99.90
50606;DHT22;36557;53.572;10.170;2022-07-01T09:51:48;17.80;99.90
50606;DHT22;36557;53.572;10.170;2022-07-01T09:54:15;17.60;99.90
50606;DHT22;36557;53.572;10.170;2022-07-01T09:56:41;17.60;99.90
50606;DHT22;36557;53.572;10.170;2022-07-01T09:59:06;17.60;99.90
50606;DHT22;36557;53.572;10.170;2022-07-01T10:01:32;17.80;99.90
50606;DHT22;36557;53.572;10.170;2022-07-01T10:04:00;17.70;99.90
50606;DHT22;36557;53.572;10.170;2022-07-01T10:06:58;17.90;99.90
50606;DHT22;36557;53.572;10.170;2022-07-01T10:09:44;17.60;99.90
50606;DHT22;36557;53.572;10.170;2022-07-01T10:12:38;17.80;99.90
50606;DHT22;36557;53.572;10.170;2022-07-01T10:15:05;17.50;99.90
50606;DHT22;36557;53.572;10.170;2022-07-01T10:17:36;17.50;99.90
50606;DHT22;36557;53.572;10.170;2022-07-01T10:20:19;17.40;99.90
50606;DHT22;36557;53.572;10.170;2022-07-01T10:22:48;17.40;99.90
50606;DHT22;36557;53.572;10.170;2022-07-01T10:25:35;17.30;99.90
50606;DHT22;36557;53.572;10.170;2022-07-01T10:31:07;17.30;99.90
50606;DHT22;36557;53.572;10.170;2022-07-01T10:33:56;17.40;99.90
50606;DHT22;36557;53.572;10.170;2022-07-01T10:41:34;17.70;99.90
50606;DHT22;36557;53.572;10.170;2022-07-01T10:44:14;17.70;99.90
50606;DHT22;36557;53.572;10.170;2022-07-01T10:47:01;17.80;99.90
50606;DHT22;36557;53.572;10.170;2022-07-01T10:52:10;17.80;99.90
50606;DHT22;36557;53.572;10.170;2022-07-01T10:57:28;17.70;99.90
50606;DHT22;36557;53.572;10.170;2022-07-01T11:02:27;17.40;99.90
50606;DHT22;36557;53.572;10.170;2022-07-01T11:04:56;17.60;99.90
50606;DHT22;36557;53.572;10.170;2022-07-01T11:07:27;17.60;99.90
50606;DHT22;36557;53.572;10.170;2022-07-01T11:09:54;17.70;99.90
50606;DHT22;36557;53.572;10.170;2022-07-01T11:12:21;17.80;99.90
50606;DHT22;36557;53.572;10.170;2022-07-01T11:14:51;18.00;99.90
50606;DHT22;36557;53.572;10.170;2022-07-01T11:17:18;18.10;99.90
50606;DHT22;36557;53.572;10.170;2022-07-01T11:19:52;18.00;99.90
50606;DHT22;36557;53.572;10.170;2022-07-01T11:22:25;18.10;99.90
50606;DHT22;36557;53.572;10.170;2022-07-01T11:24:55;18.10;99.90
50606;DHT22;36557;53.572;10.170;2022-07-01T11:27:22;18.20;99.90
50606;DHT22;36557;53.572;10.170;2022-07-01T11:29:55;18.20;99.90
50606;DHT22;36557;53.572;10.170;2022-07-01T11:32:35;18.00;99.90
50606;DHT22;36557;53.572;10.170;2022-07-01T11:35:04;18.20;99.90
50606;DHT22;36557;53.572;10.170;2022-07-01T11:37:50;18.20;99.90
50606;DHT22;36557;53.572;10.170;2022-07-01T11:40:34;18.30;99.90
50606;DHT22;36557;53.572;10.170;2022-07-01T11:43:00;18.20;99.90
50606;DHT22;36557;53.572;10.170;2022-07-01T11:45:26;18.30;99.90
50606;DHT22;36557;53.572;10.170;2022-07-01T11:47:53;18.40;99.90
50606;DHT22;36557;53.572;10.170;2022-07-01T11:50:20;18.60;99.90
50606;DHT22;36557;53.572;10.170;2022-07-01T11:52:46;18.70;99.90
50606;DHT22;36557;53.572;10.170;2022-07-01T11:55:12;18.70;99.90
50606;DHT22;36557;53.572;10.170;2022-07-01T11:57:37;18.50;99.90
50606;DHT22;36557;53.572;10.170;2022-07-01T12:00:13;18.40;99.90
50606;DHT22;36557;53.572;10.170;2022-07-01T12:02:39;18.30;99.90
50606;DHT22;36557;53.572;10.170;2022-07-01T12:05:05;18.40;99.90
50606;DHT22;36557;53.572;10.170;2022-07-01T12:07:32;18.20;99.90
50606;DHT22;36557;53.572;10.170;2022-07-01T12:09:58;18.40;99.90
50606;DHT22;36557;53.572;10.170;2022-07-01T12:12:27;18.60;99.90
50606;DHT22;36557;53.572;10.170;2022-07-01T12:14:55;18.70;99.90
50606;DHT22;36557;53.572;10.170;2022-07-01T12:17:22;18.90;99.90
50606;DHT22;36557;53.572;10.170;2022-07-01T12:19:49;18.60;99.90
50606;DHT22;36557;53.572;10.170;2022-07-01T12:22:23;18.60;99.90
50606;DHT22;36557;53.572;10.170;2022-07-01T12:24:50;18.80;99.90
50606;DHT22;36557;53.572;10.170;2022-07-01T12:27:20;18.80;99.90
50606;DHT22;36557;53.572;10.170;2022-07-01T12:32:13;18.40;99.90
50606;DHT22;36557;53.572;10.170;2022-07-01T12:34:47;18.10;99.90
50606;DHT22;36557;53.572;10.170;2022-07-01T12:37:18;18.50;99.90
50606;DHT22;36557;53.572;10.170;2022-07-01T12:40:18;18.60;99.90
50606;DHT22;36557;53.572;10.170;2022-07-01T12:42:45;18.50;99.90
50606;DHT22;36557;53.572;10.170;2022-07-01T12:45:16;18.70;99.90
50606;DHT22;36557;53.572;10.170;2022-07-01T12:47:54;18.70;99.90
50606;DHT22;36557;53.572;10.170;2022-07-01T12:50:23;18.90;99.90
50606;DHT22;36557;53.572;10.170;2022-07-01T12:53:02;19.20;99.90
50606;DHT22;36557;53.572;10.170;2022-07-01T12:58:04;19.60;99.90
50606;DHT22;36557;53.572;10.170;2022-07-01T13:00:31;19.10;99.90
50606;DHT22;36557;53.572;10.170;2022-07-01T13:02:59;19.30;99.90
50606;DHT22;36557;53.572;10.170;2022-07-01T13:05:26;19.50;99.90
50606;DHT22;36557;53.572;10.170;2022-07-01T13:07:52;19.10;99.90
50606;DHT22;36557;53.572;10.170;2022-07-01T13:10:18;19.30;99.90
50606;DHT22;36557;53.572;10.170;2022-07-01T13:12:45;19.60;99.90
50606;DHT22;36557;53.572;10.170;2022-07-01T13:15:14;20.00;99.90
50606;DHT22;36557;53.572;10.170;2022-07-01T13:17:40;20.20;99.90
50606;DHT22;36557;53.572;10.170;2022-07-01T13:20:07;20.60;99.90
50606;DHT22;36557;53.572;10.170;2022-07-01T13:22:34;20.50;99.90
50606;DHT22;36557;53.572;10.170;2022-07-01T13:25:00;20.30;99.90
50606;DHT22;36557;53.572;10.170;2022-07-01T13:27:26;20.40;99.90
50606;DHT22;36557;53.572;10.170;2022-07-01T13:29:52;20.70;99.90
50606;DHT22;36557;53.572;10.170;2022-07-01T13:32:18;20.40;99.90
50606;DHT22;36557;53.572;10.170;2022-07-01T13:34:44;20.00;99.90
50606;DHT22;36557;53.572;10.170;2022-07-01T13:37:10;20.70;99.90
50606;DHT22;36557;53.572;10.170;2022-07-01T13:39:36;21.10;99.90
50606;DHT22;36557;53.572;10.170;2022-07-01T13:42:01;20.70;99.90
50606;DHT22;36557;53.572;10.170;2022-07-01T13:44:27;20.70;99.90
50606;DHT22;36557;53.572;10.170;2022-07-01T13:46:53;20.00;99.90
50606;DHT22;36557;53.572;10.170;2022-07-01T13:49:19;20.50;99.90
50606;DHT22;36557;53.572;10.170;2022-07-01T13:51:45;20.00;99.90
50606;DHT22;36557;53.572;10.170;2022-07-01T13:54:10;19.80;99.90
50606;DHT22;36557;53.572;10.170;2022-07-01T13:56:36;20.80;99.90
50606;DHT22;36557;53.572;10.170;2022-07-01T13:59:02;20.80;99.90
50606;DHT22;36557;53.572;10.170;2022-07-01T14:01:29;20.70;99.90
50606;DHT22;36557;53.572;10.170;2022-07-01T14:03:55;20.60;99.90
50606;DHT22;36557;53.572;10.170;2022-07-01T14:06:21;21.30;99.90
50606;DHT22;36557;53.572;10.170;2022-07-01T14:08:47;21.30;99.90
50606;DHT22;36557;53.572;10.170;2022-07-01T14:11:13;20.20;99.90
50606;DHT22;36557;53.572;10.170;2022-07-01T14:13:39;20.10;99.90
50606;DHT22;36557;53.572;10.170;2022-07-01T14:16:06;20.60;99.90
50606;DHT22;36557;53.572;10.170;2022-07-01T14:18:33;21.10;99.90
50606;DHT22;36557;53.572;10.170;2022-07-01T14:21:00;21.20;99.90
50606;DHT22;36557;53.572;10.170;2022-07-01T14:23:26;21.30;99.90
50606;DHT22;36557;53.572;10.170;2022-07-01T14:25:52;21.30;99.90
50606;DHT22;36557;53.572;10.170;2022-07-01T14:28:17;20.80;99.90
50606;DHT22;36557;53.572;10.170;2022-07-01T14:30:44;20.60;99.90
50606;DHT22;36557;53.572;10.170;2022-07-01T14:33:10;20.50;99.90
50606;DHT22;36557;53.572;10.170;2022-07-01T14:35:35;20.40;99.90
50606;DHT22;36557;53.572;10.170;2022-07-01T14:38:05;19.90;99.90
50606;DHT22;36557;53.572;10.170;2022-07-01T14:40:32;19.70;99.90
50606;DHT22;36557;53.572;10.170;2022-07-01T14:42:58;19.50;99.90
50606;DHT22;36557;53.572;10.170;2022-07-01T14:45:24;19.70;99.90
50606;DHT22;36557;53.572;10.170;2022-07-01T14:47:50;19.40;99.90
50606;DHT22;36557;53.572;10.170;2022-07-01T14:50:16;19.50;99.90
50606;DHT22;36557;53.572;10.170;2022-07-01T14:52:42;19.80;99.90
50606;DHT22;36557;53.572;10.170;2022-07-01T14:55:08;19.20;99.90
50606;DHT22;36557;53.572;10.170;2022-07-01T14:57:34;18.80;99.90
50606;DHT22;36557;53.572;10.170;2022-07-01T15:00:00;18.90;99.90
50606;DHT22;36557;53.572;10.170;2022-07-01T15:02:28;19.00;99.90
50606;DHT22;36557;53.572;10.170;2022-07-01T15:04:54;19.00;99.90
50606;DHT22;36557;53.572;10.170;2022-07-01T15:07:20;19.10;99.90
50606;DHT22;36557;53.572;10.170;2022-07-01T15:09:46;18.90;99.90
50606;DHT22;36557;53.572;10.170;2022-07-01T15:12:12;19.10;99.90
50606;DHT22;36557;53.572;10.170;2022-07-01T15:14:38;19.00;99.90
50606;DHT22;36557;53.572;10.170;2022-07-01T15:17:04;19.30;99.90
50606;DHT22;36557;53.572;10.170;2022-07-01T15:19:30;18.80;99.90
50606;DHT22;36557;53.572;10.170;2022-07-01T15:21:57;18.80;99.90
50606;DHT22;36557;53.572;10.170;2022-07-01T15:24:23;19.10;99.90
50606;DHT22;36557;53.572;10.170;2022-07-01T15:26:50;19.10;99.90
50606;DHT22;36557;53.572;10.170;2022-07-01T15:29:16;19.20;99.90
50606;DHT22;36557;53.572;10.170;2022-07-01T15:31:41;19.20;99.90
50606;DHT22;36557;53.572;10.170;2022-07-01T15:34:08;19.20;99.90
50606;DHT22;36557;53.572;10.170;2022-07-01T15:36:34;19.40;99.90
50606;DHT22;36557;53.572;10.170;2022-07-01T15:38:59;19.60;99.90
50606;DHT22;36557;53.572;10.170;2022-07-01T15:41:28;19.70;99.90
50606;DHT22;36557;53.572;10.170;2022-07-01T15:43:54;19.80;99.90